sensor_id;sensor_type;location;lat;lon;timestamp;temperature;humidity
38333;DHT22;25748;46.670;14.272;2022-10-16T00:00:19;8.90;77.50
38333;DHT22;25748;46.670;14.272;2022-10-16T00:02:44;8.80;77.20
38333;DHT22;25748;46.670;14.272;2022-10-16T00:05:10;8.80;77.40
38333;DHT22;25748;46.670;14.272;2022-10-16T00:07:36;8.80;77.50
38333;DHT22;25748;46.670;14.272;2022-10-16T00:10:01;8.70;77.30
38333;DHT22;25748;46.670;14.272;2022-10-16T00:12:27;8.70;77.50
38333;DHT22;25748;46.670;14.272;2022-10-16T00:14:53;8.70;77.40
38333;DHT22;25748;46.670;14.272;2022-10-16T00:17:18;8.70;77.80
38333;DHT22;25748;46.670;14.272;2022-10-16T00:19:44;8.60;77.40
38333;DHT22;25748;46.670;14.272;2022-10-16T00:22:10;8.60;77.70
38333;DHT22;25748;46.670;14.272;2022-10-16T00:24:36;8.60;77.90
38333;DHT22;25748;46.670;14.272;2022-10-16T00:27:02;8.60;77.60
38333;DHT22;25748;46.670;14.272;2022-10-16T00:29:27;8.50;77.80
38333;DHT22;25748;46.670;14.272;2022-10-16T00:31:53;8.50;77.80
38333;DHT22;25748;46.670;14.272;2022-10-16T00:34:19;8.50;78.30
38333;DHT22;25748;46.670;14.272;2022-10-16T00:36:44;8.40;78.20
38333;DHT22;25748;46.670;14.272;2022-10-16T00:39:10;8.40;78.30
38333;DHT22;25748;46.670;14.272;2022-10-16T00:41:36;8.40;78.00
38333;DHT22;25748;46.670;14.272;2022-10-16T00:47:11;8.40;78.20
38333;DHT22;25748;46.670;14.272;2022-10-16T00:49:38;8.40;78.20
38333;DHT22;25748;46.670;14.272;2022-10-16T00:52:05;8.30;78.40
38333;DHT22;25748;46.670;14.272;2022-10-16T00:54:32;8.30;78.40
38333;DHT22;25748;46.670;14.272;2022-10-16T00:57:04;8.30;78.50
38333;DHT22;25748;46.670;14.272;2022-10-16T00:59:37;8.30;78.80
38333;DHT22;25748;46.670;14.272;2022-10-16T01:02:05;8.30;78.70
38333;DHT22;25748;46.670;14.272;2022-10-16T01:04:35;8.30;78.90
38333;DHT22;25748;46.670;14.272;2022-10-16T01:07:09;8.30;79.20
38333;DHT22;25748;46.670;14.272;2022-10-16T01:12:11;8.20;79.50
38333;DHT22;25748;46.670;14.272;2022-10-16T01:15:01;8.20;79.80
38333;DHT22;25748;46.670;14.272;2022-10-16T01:17:29;8.20;80.10
38333;DHT22;25748;46.670;14.272;2022-10-16T01:22:26;8.20;80.00
38333;DHT22;25748;46.670;14.272;2022-10-16T01:24:55;8.20;79.80
38333;DHT22;25748;46.670;14.272;2022-10-16T01:27:31;8.20;79.50
38333;DHT22;25748;46.670;14.272;2022-10-16T01:32:41;8.10;79.10
38333;DHT22;25748;46.670;14.272;2022-10-16T01:35:37;8.10;78.90
38333;DHT22;25748;46.670;14.272;2022-10-16T01:40:42;8.00;79.40
38333;DHT22;25748;46.670;14.272;2022-10-16T01:43:14;8.00;79.30
38333;DHT22;25748;46.670;14.272;2022-10-16T01:45:41;8.00;79.30
38333;DHT22;25748;46.670;14.272;2022-10-16T01:48:15;8.00;79.10
38333;DHT22;25748;46.670;14.272;2022-10-16T01:50:44;8.00;79.20
38333;DHT22;25748;46.670;14.272;2022-10-16T01:53:12;7.90;79.40
38333;DHT22;25748;46.670;14.272;2022-10-16T01:55:42;8.00;79.60
38333;DHT22;25748;46.670;14.272;2022-10-16T01:58:12;8.00;79.90
38333;DHT22;25748;46.670;14.272;2022-10-16T02:00:42;8.00;80.20
38333;DHT22;25748;46.670;14.272;2022-10-16T02:03:09;8.00;80.50
38333;DHT22;25748;46.670;14.272;2022-10-16T02:08:08;8.00;81.10
38333;DHT22;25748;46.670;14.272;2022-10-16T02:10:35;8.00;81.30
38333;DHT22;25748;46.670;14.272;2022-10-16T02:13:17;8.00;81.40
38333;DHT22;25748;46.670;14.272;2022-10-16T02:15:44;8.00;81.20
38333;DHT22;25748;46.670;14.272;2022-10-16T02:18:10;8.10;81.30
38333;DHT22;25748;46.670;14.272;2022-10-16T02:20:54;8.00;81.00
38333;DHT22;25748;46.670;14.272;2022-10-16T02:26:27;8.00;80.60
38333;DHT22;25748;46.670;14.272;2022-10-16T02:28:56;7.90;80.60
38333;DHT22;25748;46.670;14.272;2022-10-16T02:31:32;8.00;80.80
38333;DHT22;25748;46.670;14.272;2022-10-16T02:34:01;7.90;80.90
38333;DHT22;25748;46.670;14.272;2022-10-16T02:36:31;8.00;81.10
38333;DHT22;25748;46.670;14.272;2022-10-16T02:38:58;7.90;81.10
38333;DHT22;25748;46.670;14.272;2022-10-16T02:41:26;7.90;81.10
38333;DHT22;25748;46.670;14.272;2022-10-16T02:43:52;7.90;80.90
38333;DHT22;25748;46.670;14.272;2022-10-16T02:46:18;7.90;80.80
38333;DHT22;25748;46.670;14.272;2022-10-16T02:48:44;7.90;80.80
38333;DHT22;25748;46.670;14.272;2022-10-16T02:51:10;7.80;80.40
38333;DHT22;25748;46.670;14.272;2022-10-16T02:53:35;7.80;80.70
38333;DHT22;25748;46.670;14.272;2022-10-16T02:56:01;7.80;81.10
38333;DHT22;25748;46.670;14.272;2022-10-16T02:58:27;7.70;81.50
38333;DHT22;25748;46.670;14.272;2022-10-16T03:00:52;7.70;82.00
38333;DHT22;25748;46.670;14.272;2022-10-16T03:03:18;7.70;82.10
38333;DHT22;25748;46.670;14.272;2022-10-16T03:05:44;7.80;82.20
38333;DHT22;25748;46.670;14.272;2022-10-16T03:08:11;7.80;82.50
38333;DHT22;25748;46.670;14.272;2022-10-16T03:10:37;7.70;82.70
38333;DHT22;25748;46.670;14.272;2022-10-16T03:13:03;7.80;83.30
38333;DHT22;25748;46.670;14.272;2022-10-16T03:15:28;7.80;83.60
38333;DHT22;25748;46.670;14.272;2022-10-16T03:17:57;7.80;83.80
38333;DHT22;25748;46.670;14.272;2022-10-16T03:20:23;7.80;84.00
38333;DHT22;25748;46.670;14.272;2022-10-16T03:22:48;7.80;84.30
38333;DHT22;25748;46.670;14.272;2022-10-16T03:25:14;7.80;84.30
38333;DHT22;25748;46.670;14.272;2022-10-16T03:27:40;7.80;84.40
38333;DHT22;25748;46.670;14.272;2022-10-16T03:30:06;7.80;84.50
38333;DHT22;25748;46.670;14.272;2022-10-16T03:32:32;7.80;84.50
38333;DHT22;25748;46.670;14.272;2022-10-16T03:34:57;7.80;84.70
38333;DHT22;25748;46.670;14.272;2022-10-16T03:37:23;7.90;84.90
38333;DHT22;25748;46.670;14.272;2022-10-16T03:39:49;7.90;84.90
38333;DHT22;25748;46.670;14.272;2022-10-16T03:42:15;7.90;84.90
38333;DHT22;25748;46.670;14.272;2022-10-16T03:44:40;7.90;84.90
38333;DHT22;25748;46.670;14.272;2022-10-16T03:47:06;7.90;84.80
38333;DHT22;25748;46.670;14.272;2022-10-16T03:49:32;7.90;84.80
38333;DHT22;25748;46.670;14.272;2022-10-16T03:51:57;7.90;84.50
38333;DHT22;25748;46.670;14.272;2022-10-16T03:54:23;7.90;84.50
38333;DHT22;25748;46.670;14.272;2022-10-16T03:56:48;7.90;84.10
38333;DHT22;25748;46.670;14.272;2022-10-16T03:59:14;7.80;84.00
38333;DHT22;25748;46.670;14.272;2022-10-16T04:01:40;7.80;83.50
38333;DHT22;25748;46.670;14.272;2022-10-16T04:04:06;7.80;83.50
38333;DHT22;25748;46.670;14.272;2022-10-16T04:06:31;7.80;83.20
38333;DHT22;25748;46.670;14.272;2022-10-16T04:08:57;7.70;83.30
38333;DHT22;25748;46.670;14.272;2022-10-16T04:11:23;7.70;83.90
38333;DHT22;25748;46.670;14.272;2022-10-16T04:13:48;7.70;84.20
38333;DHT22;25748;46.670;14.272;2022-10-16T04:16:14;7.80;84.50
38333;DHT22;25748;46.670;14.272;2022-10-16T04:18:40;7.80;84.60
38333;DHT22;25748;46.670;14.272;2022-10-16T04:21:06;7.80;84.80
38333;DHT22;25748;46.670;14.272;2022-10-16T04:23:32;7.80;84.90
38333;DHT22;25748;46.670;14.272;2022-10-16T04:25:58;7.80;85.00
38333;DHT22;25748;46.670;14.272;2022-10-16T04:28:24;7.80;85.00
38333;DHT22;25748;46.670;14.272;2022-10-16T04:30:50;7.90;85.30
38333;DHT22;25748;46.670;14.272;2022-10-16T04:33:16;7.90;85.30
38333;DHT22;25748;46.670;14.272;2022-10-16T04:35:41;7.90;85.40
38333;DHT22;25748;46.670;14.272;2022-10-16T04:38:07;7.90;85.50
38333;DHT22;25748;46.670;14.272;2022-10-16T04:40:33;7.90;85.60
38333;DHT22;25748;46.670;14.272;2022-10-16T04:43:02;8.00;85.80
38333;DHT22;25748;46.670;14.272;2022-10-16T04:45:28;7.90;85.80
38333;DHT22;25748;46.670;14.272;2022-10-16T04:47:57;8.00;86.00
38333;DHT22;25748;46.670;14.272;2022-10-16T04:50:23;8.00;86.10
38333;DHT22;25748;46.670;14.272;2022-10-16T04:52:49;8.00;86.20
38333;DHT22;25748;46.670;14.272;2022-10-16T04:55:14;8.10;86.40
38333;DHT22;25748;46.670;14.272;2022-10-16T04:57:40;8.10;86.50
38333;DHT22;25748;46.670;14.272;2022-10-16T05:00:07;8.10;86.60
38333;DHT22;25748;46.670;14.272;2022-10-16T05:02:33;8.20;86.70
38333;DHT22;25748;46.670;14.272;2022-10-16T05:04:59;8.20;86.70
38333;DHT22;25748;46.670;14.272;2022-10-16T05:07:25;8.20;86.70
38333;DHT22;25748;46.670;14.272;2022-10-16T05:09:51;8.30;86.60
38333;DHT22;25748;46.670;14.272;2022-10-16T05:12:17;8.20;86.30
38333;DHT22;25748;46.670;14.272;2022-10-16T05:14:42;8.20;86.20
38333;DHT22;25748;46.670;14.272;2022-10-16T05:17:08;8.20;86.20
38333;DHT22;25748;46.670;14.272;2022-10-16T05:19:34;8.20;85.80
38333;DHT22;25748;46.670;14.272;2022-10-16T05:21:59;8.20;85.70
38333;DHT22;25748;46.670;14.272;2022-10-16T05:24:25;8.20;85.50
38333;DHT22;25748;46.670;14.272;2022-10-16T05:26:51;8.20;85.50
38333;DHT22;25748;46.670;14.272;2022-10-16T05:29:17;8.20;85.70
38333;DHT22;25748;46.670;14.272;2022-10-16T05:31:42;8.20;85.80
38333;DHT22;25748;46.670;14.272;2022-10-16T05:34:08;8.20;85.70
38333;DHT22;25748;46.670;14.272;2022-10-16T05:36:34;8.20;85.80
38333;DHT22;25748;46.670;14.272;2022-10-16T05:39:00;8.20;85.80
38333;DHT22;25748;46.670;14.272;2022-10-16T05:41:25;8.20;86.00
38333;DHT22;25748;46.670;14.272;2022-10-16T05:43:52;8.20;86.30
38333;DHT22;25748;46.670;14.272;2022-10-16T05:46:18;8.20;86.40
38333;DHT22;25748;46.670;14.272;2022-10-16T05:48:44;8.20;87.00
38333;DHT22;25748;46.670;14.272;2022-10-16T05:51:12;8.20;86.80
38333;DHT22;25748;46.670;14.272;2022-10-16T05:53:39;8.30;86.90
38333;DHT22;25748;46.670;14.272;2022-10-16T05:56:06;8.30;87.00
38333;DHT22;25748;46.670;14.272;2022-10-16T05:58:36;8.40;87.50
38333;DHT22;25748;46.670;14.272;2022-10-16T06:01:09;8.40;87.30
38333;DHT22;25748;46.670;14.272;2022-10-16T06:03:35;8.40;87.40
38333;DHT22;25748;46.670;14.272;2022-10-16T06:06:22;8.40;87.50
38333;DHT22;25748;46.670;14.272;2022-10-16T06:08:49;8.50;87.70
38333;DHT22;25748;46.670;14.272;2022-10-16T06:11:20;8.50;87.70
38333;DHT22;25748;46.670;14.272;2022-10-16T06:13:49;8.50;87.80
38333;DHT22;25748;46.670;14.272;2022-10-16T06:16:15;8.60;88.00
38333;DHT22;25748;46.670;14.272;2022-10-16T06:18:41;8.60;88.10
38333;DHT22;25748;46.670;14.272;2022-10-16T06:21:14;8.70;88.20
38333;DHT22;25748;46.670;14.272;2022-10-16T06:23:41;8.70;88.30
38333;DHT22;25748;46.670;14.272;2022-10-16T06:26:12;8.80;88.50
38333;DHT22;25748;46.670;14.272;2022-10-16T06:28:39;8.80;88.60
38333;DHT22;25748;46.670;14.272;2022-10-16T06:31:06;8.90;88.80
38333;DHT22;25748;46.670;14.272;2022-10-16T06:33:32;8.90;88.90
38333;DHT22;25748;46.670;14.272;2022-10-16T06:36:09;9.00;88.80
38333;DHT22;25748;46.670;14.272;2022-10-16T06:38:36;9.00;88.60
38333;DHT22;25748;46.670;14.272;2022-10-16T06:41:02;9.00;88.50
38333;DHT22;25748;46.670;14.272;2022-10-16T06:43:32;9.10;88.30
38333;DHT22;25748;46.670;14.272;2022-10-16T06:45:59;9.10;88.40
38333;DHT22;25748;46.670;14.272;2022-10-16T06:48:25;9.10;88.30
38333;DHT22;25748;46.670;14.272;2022-10-16T06:51:01;9.20;88.40
38333;DHT22;25748;46.670;14.272;2022-10-16T06:53:29;9.20;88.40
38333;DHT22;25748;46.670;14.272;2022-10-16T06:55:55;9.20;88.30
38333;DHT22;25748;46.670;14.272;2022-10-16T06:58:21;9.30;88.40
38333;DHT22;25748;46.670;14.272;2022-10-16T07:00:47;9.30;88.40
38333;DHT22;25748;46.670;14.272;2022-10-16T07:03:13;9.30;88.40
38333;DHT22;25748;46.670;14.272;2022-10-16T07:05:40;9.40;88.40
38333;DHT22;25748;46.670;14.272;2022-10-16T07:08:06;9.40;88.40
38333;DHT22;25748;46.670;14.272;2022-10-16T07:10:34;9.40;88.40
38333;DHT22;25748;46.670;14.272;2022-10-16T07:13:00;9.40;88.30
38333;DHT22;25748;46.670;14.272;2022-10-16T07:15:26;9.50;88.40
38333;DHT22;25748;46.670;14.272;2022-10-16T07:17:52;9.50;88.40
38333;DHT22;25748;46.670;14.272;2022-10-16T07:20:18;9.50;88.50
38333;DHT22;25748;46.670;14.272;2022-10-16T07:22:44;9.60;88.60
38333;DHT22;25748;46.670;14.272;2022-10-16T07:25:13;9.60;88.60
38333;DHT22;25748;46.670;14.272;2022-10-16T07:27:39;9.70;88.50
38333;DHT22;25748;46.670;14.272;2022-10-16T07:30:07;9.70;88.50
38333;DHT22;25748;46.670;14.272;2022-10-16T07:32:34;9.80;88.50
38333;DHT22;25748;46.670;14.272;2022-10-16T07:35:00;9.80;88.00
38333;DHT22;25748;46.670;14.272;2022-10-16T07:37:26;9.90;88.20
38333;DHT22;25748;46.670;14.272;2022-10-16T07:39:51;10.00;88.00
38333;DHT22;25748;46.670;14.272;2022-10-16T07:42:17;10.00;87.60
38333;DHT22;25748;46.670;14.272;2022-10-16T07:44:43;10.00;87.60
38333;DHT22;25748;46.670;14.272;2022-10-16T07:47:12;10.10;87.80
38333;DHT22;25748;46.670;14.272;2022-10-16T07:49:38;10.20;87.90
38333;DHT22;25748;46.670;14.272;2022-10-16T07:52:04;10.30;88.00
38333;DHT22;25748;46.670;14.272;2022-10-16T07:54:29;10.40;87.90
38333;DHT22;25748;46.670;14.272;2022-10-16T07:56:55;10.40;87.60
38333;DHT22;25748;46.670;14.272;2022-10-16T07:59:22;10.50;87.70
38333;DHT22;25748;46.670;14.272;2022-10-16T08:01:49;10.60;87.80
38333;DHT22;25748;46.670;14.272;2022-10-16T08:04:15;10.70;87.90
38333;DHT22;25748;46.670;14.272;2022-10-16T08:06:41;10.80;87.70
38333;DHT22;25748;46.670;14.272;2022-10-16T08:09:08;10.80;87.50
38333;DHT22;25748;46.670;14.272;2022-10-16T08:11:34;10.90;86.80
38333;DHT22;25748;46.670;14.272;2022-10-16T08:14:00;11.00;86.90
38333;DHT22;25748;46.670;14.272;2022-10-16T08:16:25;11.00;86.30
38333;DHT22;25748;46.670;14.272;2022-10-16T08:18:51;11.10;86.00
38333;DHT22;25748;46.670;14.272;2022-10-16T08:21:20;11.20;86.20
38333;DHT22;25748;46.670;14.272;2022-10-16T08:23:46;11.30;85.50
38333;DHT22;25748;46.670;14.272;2022-10-16T08:26:12;11.40;85.20
38333;DHT22;25748;46.670;14.272;2022-10-16T08:28:38;11.40;85.00
38333;DHT22;25748;46.670;14.272;2022-10-16T08:31:09;11.50;84.70
38333;DHT22;25748;46.670;14.272;2022-10-16T08:33:35;11.60;84.00
38333;DHT22;25748;46.670;14.272;2022-10-16T08:36:03;11.70;83.50
38333;DHT22;25748;46.670;14.272;2022-10-16T08:38:28;11.70;83.00
38333;DHT22;25748;46.670;14.272;2022-10-16T08:41:01;11.80;82.70
38333;DHT22;25748;46.670;14.272;2022-10-16T08:49:03;12.20;82.20
38333;DHT22;25748;46.670;14.272;2022-10-16T08:51:35;12.30;81.40
38333;DHT22;25748;46.670;14.272;2022-10-16T08:54:06;12.40;80.80
38333;DHT22;25748;46.670;14.272;2022-10-16T08:56:32;12.50;79.20
38333;DHT22;25748;46.670;14.272;2022-10-16T08:58:59;12.60;79.10
38333;DHT22;25748;46.670;14.272;2022-10-16T09:01:54;12.60;78.40
38333;DHT22;25748;46.670;14.272;2022-10-16T09:06:52;12.70;77.20
38333;DHT22;25748;46.670;14.272;2022-10-16T09:09:31;12.70;76.80
38333;DHT22;25748;46.670;14.272;2022-10-16T09:12:31;12.80;77.00
38333;DHT22;25748;46.670;14.272;2022-10-16T09:20:26;13.10;76.80
38333;DHT22;25748;46.670;14.272;2022-10-16T09:23:22;13.30;76.10
38333;DHT22;25748;46.670;14.272;2022-10-16T09:25:49;13.30;74.90
38333;DHT22;25748;46.670;14.272;2022-10-16T09:28:17;13.60;74.80
38333;DHT22;25748;46.670;14.272;2022-10-16T09:30:43;13.60;74.10
38333;DHT22;25748;46.670;14.272;2022-10-16T09:33:11;13.80;74.40
38333;DHT22;25748;46.670;14.272;2022-10-16T09:35:49;13.80;73.70
38333;DHT22;25748;46.670;14.272;2022-10-16T09:38:24;14.10;73.20
38333;DHT22;25748;46.670;14.272;2022-10-16T09:40:58;14.40;72.90
38333;DHT22;25748;46.670;14.272;2022-10-16T09:46:07;15.00;70.80
38333;DHT22;25748;46.670;14.272;2022-10-16T09:51:06;15.60;69.30
38333;DHT22;25748;46.670;14.272;2022-10-16T09:53:45;15.80;67.80
38333;DHT22;25748;46.670;14.272;2022-10-16T09:56:21;16.00;67.10
38333;DHT22;25748;46.670;14.272;2022-10-16T09:58:59;16.20;65.40
38333;DHT22;25748;46.670;14.272;2022-10-16T10:01:30;16.50;64.20
38333;DHT22;25748;46.670;14.272;2022-10-16T10:03:57;16.80;63.30
38333;DHT22;25748;46.670;14.272;2022-10-16T10:06:41;17.00;62.90
38333;DHT22;25748;46.670;14.272;2022-10-16T10:09:27;17.20;61.10
38333;DHT22;25748;46.670;14.272;2022-10-16T10:11:59;17.40;59.90
38333;DHT22;25748;46.670;14.272;2022-10-16T10:14:38;17.60;59.60
38333;DHT22;25748;46.670;14.272;2022-10-16T10:19:52;18.10;59.00
38333;DHT22;25748;46.670;14.272;2022-10-16T10:22:44;18.30;59.10
38333;DHT22;25748;46.670;14.272;2022-10-16T10:30:29;18.70;56.50
38333;DHT22;25748;46.670;14.272;2022-10-16T10:40:50;19.30;56.80
38333;DHT22;25748;46.670;14.272;2022-10-16T10:45:57;19.70;54.90
38333;DHT22;25748;46.670;14.272;2022-10-16T10:51:13;20.00;54.10
38333;DHT22;25748;46.670;14.272;2022-10-16T10:59:43;20.30;52.70
38333;DHT22;25748;46.670;14.272;2022-10-16T11:02:26;20.50;52.80
38333;DHT22;25748;46.670;14.272;2022-10-16T11:08:02;20.60;52.50
38333;DHT22;25748;46.670;14.272;2022-10-16T11:10:50;20.70;52.10
38333;DHT22;25748;46.670;14.272;2022-10-16T11:13:28;20.80;51.70
38333;DHT22;25748;46.670;14.272;2022-10-16T11:15:59;20.80;50.90
38333;DHT22;25748;46.670;14.272;2022-10-16T11:21:46;20.90;51.40
38333;DHT22;25748;46.670;14.272;2022-10-16T11:35:51;21.20;49.90
38333;DHT22;25748;46.670;14.272;2022-10-16T11:40:53;21.50;50.00
38333;DHT22;25748;46.670;14.272;2022-10-16T11:43:28;21.60;49.70
38333;DHT22;25748;46.670;14.272;2022-10-16T11:45:57;21.60;49.90
38333;DHT22;25748;46.670;14.272;2022-10-16T11:48:29;21.60;49.80
38333;DHT22;25748;46.670;14.272;2022-10-16T11:51:18;21.70;50.10
38333;DHT22;25748;46.670;14.272;2022-10-16T11:54:14;21.80;48.80
38333;DHT22;25748;46.670;14.272;2022-10-16T11:56:45;21.80;48.80
38333;DHT22;25748;46.670;14.272;2022-10-16T12:02:01;22.00;49.00
38333;DHT22;25748;46.670;14.272;2022-10-16T12:04:45;21.90;48.10
38333;DHT22;25748;46.670;14.272;2022-10-16T12:07:16;22.10;48.60
38333;DHT22;25748;46.670;14.272;2022-10-16T12:09:44;22.10;48.20
38333;DHT22;25748;46.670;14.272;2022-10-16T12:12:42;22.00;47.40
38333;DHT22;25748;46.670;14.272;2022-10-16T12:15:26;22.10;47.30
38333;DHT22;25748;46.670;14.272;2022-10-16T12:17:52;22.10;47.20
38333;DHT22;25748;46.670;14.272;2022-10-16T12:20:31;22.20;47.40
38333;DHT22;25748;46.670;14.272;2022-10-16T12:23:03;22.30;47.10
38333;DHT22;25748;46.670;14.272;2022-10-16T12:25:34;22.20;47.80
38333;DHT22;25748;46.670;14.272;2022-10-16T12:30:34;22.50;46.60
38333;DHT22;25748;46.670;14.272;2022-10-16T12:33:05;22.60;47.00
38333;DHT22;25748;46.670;14.272;2022-10-16T12:35:34;22.70;46.90
38333;DHT22;25748;46.670;14.272;2022-10-16T12:38:27;22.80;46.60
38333;DHT22;25748;46.670;14.272;2022-10-16T12:41:00;22.80;46.20
38333;DHT22;25748;46.670;14.272;2022-10-16T12:43:28;22.80;46.70
38333;DHT22;25748;46.670;14.272;2022-10-16T12:48:35;23.00;46.40
38333;DHT22;25748;46.670;14.272;2022-10-16T12:51:21;23.10;46.20
38333;DHT22;25748;46.670;14.272;2022-10-16T12:53:58;23.00;45.80
38333;DHT22;25748;46.670;14.272;2022-10-16T13:02:36;23.20;45.60
38333;DHT22;25748;46.670;14.272;2022-10-16T13:05:32;23.40;45.80
38333;DHT22;25748;46.670;14.272;2022-10-16T13:11:05;23.50;45.50
38333;DHT22;25748;46.670;14.272;2022-10-16T13:16:46;23.70;45.60
38333;DHT22;25748;46.670;14.272;2022-10-16T13:19:29;23.80;45.20
38333;DHT22;25748;46.670;14.272;2022-10-16T13:30:15;23.80;45.10
38333;DHT22;25748;46.670;14.272;2022-10-16T13:32:46;23.90;45.10
38333;DHT22;25748;46.670;14.272;2022-10-16T13:35:27;24.00;44.30
38333;DHT22;25748;46.670;14.272;2022-10-16T13:38:14;23.80;44.00
38333;DHT22;25748;46.670;14.272;2022-10-16T13:41:00;23.70;44.00
38333;DHT22;25748;46.670;14.272;2022-10-16T13:43:41;23.80;44.20
38333;DHT22;25748;46.670;14.272;2022-10-16T13:46:15;23.60;44.80
38333;DHT22;25748;46.670;14.272;2022-10-16T13:48:41;23.70;44.80
38333;DHT22;25748;46.670;14.272;2022-10-16T13:53:39;23.90;44.10
38333;DHT22;25748;46.670;14.272;2022-10-16T13:56:10;23.70;44.00
38333;DHT22;25748;46.670;14.272;2022-10-16T13:58:36;23.70;44.20
38333;DHT22;25748;46.670;14.272;2022-10-16T14:01:04;23.50;44.00
38333;DHT22;25748;46.670;14.272;2022-10-16T14:03:34;23.50;44.40
38333;DHT22;25748;46.670;14.272;2022-10-16T14:06:03;23.40;44.30
38333;DHT22;25748;46.670;14.272;2022-10-16T14:08:32;23.30;43.80
38333;DHT22;25748;46.670;14.272;2022-10-16T14:10:59;23.30;44.60
38333;DHT22;25748;46.670;14.272;2022-10-16T14:13:32;23.30;44.40
38333;DHT22;25748;46.670;14.272;2022-10-16T14:16:08;23.30;44.60
38333;DHT22;25748;46.670;14.272;2022-10-16T14:18:35;23.30;44.70
38333;DHT22;25748;46.670;14.272;2022-10-16T14:21:07;23.20;44.10
38333;DHT22;25748;46.670;14.272;2022-10-16T14:23:38;23.20;44.40
38333;DHT22;25748;46.670;14.272;2022-10-16T14:28:32;23.00;44.40
38333;DHT22;25748;46.670;14.272;2022-10-16T14:33:44;23.00;45.20
38333;DHT22;25748;46.670;14.272;2022-10-16T14:38:39;23.00;44.60
38333;DHT22;25748;46.670;14.272;2022-10-16T14:41:06;23.00;44.70
38333;DHT22;25748;46.670;14.272;2022-10-16T14:43:42;23.10;45.00
38333;DHT22;25748;46.670;14.272;2022-10-16T14:46:23;23.00;44.90
38333;DHT22;25748;46.670;14.272;2022-10-16T14:51:37;22.90;45.00
38333;DHT22;25748;46.670;14.272;2022-10-16T14:54:08;23.00;45.20
38333;DHT22;25748;46.670;14.272;2022-10-16T14:59:19;22.90;44.90
38333;DHT22;25748;46.670;14.272;2022-10-16T15:01:47;22.90;45.00
38333;DHT22;25748;46.670;14.272;2022-10-16T15:04:13;22.90;44.60
38333;DHT22;25748;46.670;14.272;2022-10-16T15:06:39;22.80;44.00
38333;DHT22;25748;46.670;14.272;2022-10-16T15:09:05;22.70;44.00
38333;DHT22;25748;46.670;14.272;2022-10-16T15:11:32;22.70;44.60
38333;DHT22;25748;46.670;14.272;2022-10-16T15:13:58;22.70;44.80
38333;DHT22;25748;46.670;14.272;2022-10-16T15:16:24;22.60;44.90
38333;DHT22;25748;46.670;14.272;2022-10-16T15:18:50;22.50;45.20
38333;DHT22;25748;46.670;14.272;2022-10-16T15:21:27;22.40;45.50
38333;DHT22;25748;46.670;14.272;2022-10-16T15:23:53;22.40;45.70
38333;DHT22;25748;46.670;14.272;2022-10-16T15:26:19;22.30;45.70
38333;DHT22;25748;46.670;14.272;2022-10-16T15:28:45;22.20;46.10
38333;DHT22;25748;46.670;14.272;2022-10-16T15:31:13;22.00;46.20
38333;DHT22;25748;46.670;14.272;2022-10-16T15:33:39;21.90;46.60
38333;DHT22;25748;46.670;14.272;2022-10-16T15:36:05;21.80;46.70
38333;DHT22;25748;46.670;14.272;2022-10-16T15:38:31;21.70;46.90
38333;DHT22;25748;46.670;14.272;2022-10-16T15:40:56;21.60;47.20
38333;DHT22;25748;46.670;14.272;2022-10-16T15:43:22;21.40;47.70
38333;DHT22;25748;46.670;14.272;2022-10-16T15:46:04;21.30;48.00
38333;DHT22;25748;46.670;14.272;2022-10-16T15:48:31;21.10;48.30
38333;DHT22;25748;46.670;14.272;2022-10-16T15:50:58;21.00;48.60
38333;DHT22;25748;46.670;14.272;2022-10-16T15:53:24;20.70;48.80
38333;DHT22;25748;46.670;14.272;2022-10-16T15:55:50;20.40;49.20
38333;DHT22;25748;46.670;14.272;2022-10-16T15:58:20;20.20;49.50
38333;DHT22;25748;46.670;14.272;2022-10-16T16:00:59;20.00;49.80
38333;DHT22;25748;46.670;14.272;2022-10-16T16:03:33;19.70;50.30
38333;DHT22;25748;46.670;14.272;2022-10-16T16:06:12;19.50;50.70
38333;DHT22;25748;46.670;14.272;2022-10-16T16:08:42;19.30;51.10
38333;DHT22;25748;46.670;14.272;2022-10-16T16:11:14;19.10;51.50
38333;DHT22;25748;46.670;14.272;2022-10-16T16:13:41;19.00;51.40
38333;DHT22;25748;46.670;14.272;2022-10-16T16:16:08;18.80;51.40
38333;DHT22;25748;46.670;14.272;2022-10-16T16:18:34;18.50;51.40
38333;DHT22;25748;46.670;14.272;2022-10-16T16:21:00;18.30;51.50
38333;DHT22;25748;46.670;14.272;2022-10-16T16:23:27;18.10;52.00
38333;DHT22;25748;46.670;14.272;2022-10-16T16:26:23;17.90;52.50
38333;DHT22;25748;46.670;14.272;2022-10-16T16:28:52;17.60;52.70
38333;DHT22;25748;46.670;14.272;2022-10-16T16:31:18;17.50;52.70
38333;DHT22;25748;46.670;14.272;2022-10-16T16:33:45;17.30;52.70
38333;DHT22;25748;46.670;14.272;2022-10-16T16:36:11;17.10;52.90
38333;DHT22;25748;46.670;14.272;2022-10-16T16:38:37;16.90;53.10
38333;DHT22;25748;46.670;14.272;2022-10-16T16:41:20;16.80;53.40
38333;DHT22;25748;46.670;14.272;2022-10-16T16:43:46;16.60;53.70
38333;DHT22;25748;46.670;14.272;2022-10-16T16:46:13;16.40;54.00
38333;DHT22;25748;46.670;14.272;2022-10-16T16:48:39;16.30;54.20
38333;DHT22;25748;46.670;14.272;2022-10-16T16:51:09;16.20;54.50
38333;DHT22;25748;46.670;14.272;2022-10-16T16:53:37;16.10;54.60
38333;DHT22;25748;46.670;14.272;2022-10-16T16:56:04;15.90;55.00
38333;DHT22;25748;46.670;14.272;2022-10-16T16:58:30;15.80;55.20
38333;DHT22;25748;46.670;14.272;2022-10-16T17:00:56;15.60;55.30
38333;DHT22;25748;46.670;14.272;2022-10-16T17:03:28;15.50;55.50
38333;DHT22;25748;46.670;14.272;2022-10-16T17:06:02;15.40;55.70
38333;DHT22;25748;46.670;14.272;2022-10-16T17:08:29;15.30;55.60
38333;DHT22;25748;46.670;14.272;2022-10-16T17:10:56;15.20;55.60
38333;DHT22;25748;46.670;14.272;2022-10-16T17:13:28;15.00;56.00
38333;DHT22;25748;46.670;14.272;2022-10-16T17:15:54;14.90;56.60
38333;DHT22;25748;46.670;14.272;2022-10-16T17:18:21;14.80;56.70
38333;DHT22;25748;46.670;14.272;2022-10-16T17:20:48;14.70;56.80
38333;DHT22;25748;46.670;14.272;2022-10-16T17:23:16;14.60;56.80
38333;DHT22;25748;46.670;14.272;2022-10-16T17:25:42;14.50;57.20
38333;DHT22;25748;46.670;14.272;2022-10-16T17:28:09;14.40;57.40
38333;DHT22;25748;46.670;14.272;2022-10-16T17:30:41;14.30;57.70
38333;DHT22;25748;46.670;14.272;2022-10-16T17:33:08;14.20;57.60
38333;DHT22;25748;46.670;14.272;2022-10-16T17:35:38;14.10;57.90
38333;DHT22;25748;46.670;14.272;2022-10-16T17:38:04;14.00;58.10
38333;DHT22;25748;46.670;14.272;2022-10-16T17:40:30;13.90;58.20
38333;DHT22;25748;46.670;14.272;2022-10-16T17:42:55;13.80;58.30
38333;DHT22;25748;46.670;14.272;2022-10-16T17:45:21;13.70;58.60